• Join FlightAware (Why Join?)
  • Login
  • US Flag 
01:55PM EDT


 

Airport Tracker/Info


-or-


 

Live Flight TrackerFlight Track Log ✈ ERR703 ✈ 08-Sep-2013 ✈ PAFA / FAI - PANC

Flight Track Log - Related Links

Times and Time Zones

All times are in EDT time to prevent confusion due to time zone crossing. See the ERR703 flight status page for this flight to view local times or setup timezone preferences in your user account.

Time Position Orientation Groundspeed Altitude Reporting Facility
EDT Latitude Longitude Course Direction KTS MPH feet Rate Location/Type
01:23PM 64.7500 -148.0500 236° Southwest 180 207 5,400  Level Anchorage Center
01:24PM 64.7167 -148.1333 227° Southwest 190 219 7,500 2,160 Climbing Anchorage Center
01:25PM 64.6667 -148.2167 216° Southwest 190 219 9,800 1,980 Climbing Anchorage Center
01:26PM 64.6333 -148.2500 203° Southwest 190 219 11,500 1,800 Climbing Anchorage Center
01:27PM 64.4635 -148.0888 217° Southwest  Level Estimated
01:27PM 64.5833 -148.2833 196° South 180 207 13,500  Level Anchorage Center
01:28PM 64.4296 -148.2061 236° Southwest  Level FlightAware Approximate
01:28PM 64.5333 -148.3333 203° Southwest 190 219 15,000  Level Anchorage Center
01:29PM 64.4833 -148.3667 196° South 200 230 16,500 1,260 Climbing Anchorage Center
01:30PM 64.4333 -148.4167 203° Southwest 190 219 17,600 1,260 Climbing Anchorage Center
01:31PM 64.3833 -148.4500 196° South 190 219 19,100 1,200 Climbing Anchorage Center
01:32PM 64.3167 -148.5000 198° South 210 242 20,100 900 Climbing Anchorage Center
01:33PM 64.2667 -148.5500 203° Southwest 220 253 20,900 900 Climbing Anchorage Center
01:34PM 64.2167 -148.5833 196° South 200 230 22,000 720 Climbing Anchorage Center
01:35PM 64.1667 -148.6333 204° Southwest 200 230 22,400 480 Climbing Anchorage Center
01:36PM 64.1000 -148.6667 192° South 210 242 23,000 300 Climbing Anchorage Center
01:37PM 64.0500 -148.7167 204° Southwest 220 253 23,000  Level Anchorage Center
01:38PM 63.9833 -148.7667 198° South 240 276 23,000  Level Anchorage Center
01:39PM 63.9167 -148.8167 198° South 240 276 23,000  Level Anchorage Center
01:40PM 63.8667 -148.8667 204° Southwest 240 276 23,000  Level Anchorage Center
01:41PM 63.8000 -148.9167 198° South 230 265 23,000  Level Anchorage Center
01:42PM 63.7333 -148.9667 198° South 230 265 23,000  Level Anchorage Center
01:43PM 63.6667 -149.0167 198° South 240 276 23,000  Level Anchorage Center
01:44PM 63.6000 -149.0667 198° South 240 276 23,000  Level Anchorage Center
01:45PM 63.5500 -149.1000 197° South 240 276 23,000  Level Anchorage Center
01:46PM 63.4833 -149.1500 199° South 230 265 23,000  Level Anchorage Center
01:47PM 63.4167 -149.2000 199° South 240 276 23,000  Level Anchorage Center
01:48PM 63.3500 -149.2500 199° South 220 253 23,000  Level Anchorage Center
01:49PM 63.2833 -149.3000 199° South 240 276 23,000  Level Anchorage Center
01:50PM 63.2333 -149.3500 204° Southwest 250 288 23,000  Level Anchorage Center
01:51PM 63.1667 -149.4000 199° South 250 288 23,000  Level Anchorage Center
01:52PM 63.1000 -149.4500 199° South 260 299 23,000  Level Anchorage Center
01:53PM 63.0333 -149.5000 199° South 250 288 23,000  Level Anchorage Center
01:54PM 62.9500 -149.5667 200° South 260 299 23,000  Level Anchorage Center
01:55PM 62.8833 -149.6000 193° South 250 288 23,000  Level Anchorage Center
01:56PM 62.8167 -149.6500 199° South 260 299 23,000  Level Anchorage Center
01:57PM 62.7500 -149.7000 199° South 260 299 23,000  Level Anchorage Center
01:58PM 62.7000 -149.7500 205° Southwest 230 265 23,000  Level Anchorage Center
01:59PM 62.6167 -149.8000 195° South 260 299 23,000  Level Anchorage Center
02:00PM 62.5500 -149.8500 199° South 270 311 23,000  Level Anchorage Center
02:01PM 62.4833 -149.9000 199° South 260 299 23,000  Level Anchorage Center
02:02PM 62.4000 -149.9500 196° South 260 299 23,000 -60 Level Anchorage Center
02:03PM 62.3333 -150.0000 199° South 260 299 22,900  Descending Anchorage Center
02:04PM 62.2667 -150.0500 199° South 260 299 23,000  Climbing Anchorage Center
02:05PM 62.2000 -150.1000 199° South 260 299 23,000 -60 Level Anchorage Center
02:06PM 62.1167 -150.1500 196° South 270 311 22,900 -660 Descending Anchorage Center
02:07PM 62.0500 -150.2000 199° South 260 299 21,700 -1,680 Descending Anchorage Center
02:08PM 61.9833 -150.2500 199° South 260 299 19,600 -2,100 Descending Anchorage Center
02:10PM 61.8846 -150.3093 196° South  Level FlightAware Approximate
02:17PM 61.4687 -150.2686 154° Southeast  Level FlightAware Approximate
02:18PM 61.4110 -150.2138 167° South  Level FlightAware Approximate
02:19PM 61.3533 -150.1624 149° Southeast  Level FlightAware Approximate
02:20PM 61.2972 -150.1011 159° South  Level FlightAware Approximate
02:21PM 61.2380 -150.0537 159° South  Level FlightAware Approximate
02:22PM 61.1806 -149.9973 154° Southeast  Level FlightAware Approximate
02:23PM 61.1741 -149.9982 154° Southeast  Level Estimated
02:24PM 61.1741 -149.9982 154° Southeast  Level Estimated
02:25PM 61.1741 -149.9982 154° Southeast  Level Estimated
02:26PM 61.1741 -149.9982 154° Southeast  Level Estimated
02:27PM 61.1741 -149.9982 154° Southeast  Level Estimated
02:28PM 61.1741 -149.9982 154° Southeast  Level Estimated
02:29PM 61.1741 -149.9982 154° Southeast  Level Estimated
02:30PM 61.1741 -149.9982 154° Southeast  Level Estimated
02:31PM 61.1741 -149.9982 154° Southeast  Level Estimated
02:32PM 61.1741 -149.9982 154° Southeast  Level Estimated
02:33PM 61.1741 -149.9982 154° Southeast  Level Estimated
02:34PM 61.1741 -149.9982 154° Southeast  Level Estimated
02:35PM 61.1741 -149.9982 154° Southeast  Level Estimated
02:36PM 61.1741 -149.9982 154° Southeast  Level Estimated
02:37PM 61.1741 -149.9982 154° Southeast  Level Estimated
02:38PM 61.1741 -149.9982 154° Southeast  Level Estimated
02:39PM 61.1741 -149.9982 154° Southeast  Level Estimated